sensor_id;sensor_type;location;lat;lon;timestamp;P1;durP1;ratioP1;P2;durP2;ratioP2
50002;SDS011;35889;51.442;6.408;2022-08-19T00:01:49;0.60;;;0.60;;
50002;SDS011;35889;51.442;6.408;2022-08-19T00:04:16;0.60;;;0.60;;
50002;SDS011;35889;51.442;6.408;2022-08-19T00:06:44;0.60;;;0.60;;
50002;SDS011;35889;51.442;6.408;2022-08-19T00:09:10;0.57;;;0.57;;
50002;SDS011;35889;51.442;6.408;2022-08-19T00:11:37;0.60;;;0.60;;
50002;SDS011;35889;51.442;6.408;2022-08-19T00:14:05;0.60;;;0.60;;
50002;SDS011;35889;51.442;6.408;2022-08-19T00:16:31;0.50;;;0.50;;
50002;SDS011;35889;51.442;6.408;2022-08-19T00:18:56;0.60;;;0.60;;
50002;SDS011;35889;51.442;6.408;2022-08-19T00:21:23;0.60;;;0.60;;
50002;SDS011;35889;51.442;6.408;2022-08-19T00:23:49;0.60;;;0.60;;
50002;SDS011;35889;51.442;6.408;2022-08-19T00:26:14;0.60;;;0.60;;
50002;SDS011;35889;51.442;6.408;2022-08-19T00:28:40;0.60;;;0.60;;
50002;SDS011;35889;51.442;6.408;2022-08-19T00:31:06;0.60;;;0.60;;
50002;SDS011;35889;51.442;6.408;2022-08-19T00:33:33;0.60;;;0.60;;
50002;SDS011;35889;51.442;6.408;2022-08-19T00:35:59;0.60;;;0.60;;
50002;SDS011;35889;51.442;6.408;2022-08-19T00:38:25;0.60;;;0.60;;
50002;SDS011;35889;51.442;6.408;2022-08-19T00:40:51;0.60;;;0.60;;
50002;SDS011;35889;51.442;6.408;2022-08-19T00:43:20;0.60;;;0.60;;
50002;SDS011;35889;51.442;6.408;2022-08-19T00:48:13;0.60;;;0.60;;
50002;SDS011;35889;51.442;6.408;2022-08-19T00:50:39;0.60;;;0.60;;
50002;SDS011;35889;51.442;6.408;2022-08-19T00:53:08;0.60;;;0.60;;
50002;SDS011;35889;51.442;6.408;2022-08-19T00:55:35;0.60;;;0.60;;
50002;SDS011;35889;51.442;6.408;2022-08-19T00:58:03;0.50;;;0.50;;
50002;SDS011;35889;51.442;6.408;2022-08-19T01:00:32;0.60;;;0.60;;
50002;SDS011;35889;51.442;6.408;2022-08-19T01:03:01;0.60;;;0.60;;
50002;SDS011;35889;51.442;6.408;2022-08-19T01:05:27;0.60;;;0.60;;
50002;SDS011;35889;51.442;6.408;2022-08-19T01:07:58;0.60;;;0.60;;
50002;SDS011;35889;51.442;6.408;2022-08-19T01:12:51;0.60;;;0.60;;
50002;SDS011;35889;51.442;6.408;2022-08-19T01:15:19;0.68;;;0.68;;
50002;SDS011;35889;51.442;6.408;2022-08-19T01:17:48;0.60;;;0.60;;
50002;SDS011;35889;51.442;6.408;2022-08-19T01:20:14;0.50;;;0.50;;
50002;SDS011;35889;51.442;6.408;2022-08-19T01:22:46;0.60;;;0.60;;
50002;SDS011;35889;51.442;6.408;2022-08-19T01:25:18;0.60;;;0.60;;
50002;SDS011;35889;51.442;6.408;2022-08-19T01:27:45;0.70;;;0.70;;
50002;SDS011;35889;51.442;6.408;2022-08-19T01:30:15;0.60;;;0.60;;
50002;SDS011;35889;51.442;6.408;2022-08-19T01:32:43;0.60;;;0.60;;
50002;SDS011;35889;51.442;6.408;2022-08-19T01:35:09;0.60;;;0.60;;
50002;SDS011;35889;51.442;6.408;2022-08-19T01:37:42;0.60;;;0.60;;
50002;SDS011;35889;51.442;6.408;2022-08-19T01:40:09;0.50;;;0.50;;
50002;SDS011;35889;51.442;6.408;2022-08-19T01:42:35;0.60;;;0.60;;
50002;SDS011;35889;51.442;6.408;2022-08-19T01:45:00;0.60;;;0.60;;
50002;SDS011;35889;51.442;6.408;2022-08-19T01:47:26;0.60;;;0.60;;
50002;SDS011;35889;51.442;6.408;2022-08-19T01:49:51;0.70;;;0.70;;
50002;SDS011;35889;51.442;6.408;2022-08-19T01:52:17;0.60;;;0.60;;
50002;SDS011;35889;51.442;6.408;2022-08-19T01:54:42;0.60;;;0.60;;
50002;SDS011;35889;51.442;6.408;2022-08-19T01:57:08;0.60;;;0.60;;
50002;SDS011;35889;51.442;6.408;2022-08-19T01:59:36;0.60;;;0.60;;
50002;SDS011;35889;51.442;6.408;2022-08-19T02:02:02;0.60;;;0.60;;
50002;SDS011;35889;51.442;6.408;2022-08-19T02:04:31;0.60;;;0.60;;
50002;SDS011;35889;51.442;6.408;2022-08-19T02:06:57;0.60;;;0.60;;
50002;SDS011;35889;51.442;6.408;2022-08-19T02:09:22;0.60;;;0.60;;
50002;SDS011;35889;51.442;6.408;2022-08-19T02:11:48;0.57;;;0.57;;
50002;SDS011;35889;51.442;6.408;2022-08-19T02:14:13;0.60;;;0.60;;
50002;SDS011;35889;51.442;6.408;2022-08-19T02:16:39;0.60;;;0.60;;
50002;SDS011;35889;51.442;6.408;2022-08-19T02:19:05;0.50;;;0.50;;
50002;SDS011;35889;51.442;6.408;2022-08-19T02:21:31;0.60;;;0.60;;
50002;SDS011;35889;51.442;6.408;2022-08-19T02:23:57;0.57;;;0.57;;
50002;SDS011;35889;51.442;6.408;2022-08-19T02:26:22;0.60;;;0.60;;
50002;SDS011;35889;51.442;6.408;2022-08-19T02:28:48;0.52;;;0.52;;
50002;SDS011;35889;51.442;6.408;2022-08-19T02:31:15;0.60;;;0.60;;
50002;SDS011;35889;51.442;6.408;2022-08-19T02:33:43;0.57;;;0.57;;
50002;SDS011;35889;51.442;6.408;2022-08-19T02:36:10;0.60;;;0.60;;
50002;SDS011;35889;51.442;6.408;2022-08-19T02:38:37;0.60;;;0.60;;
50002;SDS011;35889;51.442;6.408;2022-08-19T02:41:06;0.60;;;0.60;;
50002;SDS011;35889;51.442;6.408;2022-08-19T02:43:41;0.60;;;0.60;;
50002;SDS011;35889;51.442;6.408;2022-08-19T02:46:23;0.60;;;0.60;;
50002;SDS011;35889;51.442;6.408;2022-08-19T02:48:52;0.60;;;0.60;;
50002;SDS011;35889;51.442;6.408;2022-08-19T02:51:24;0.60;;;0.60;;
50002;SDS011;35889;51.442;6.408;2022-08-19T02:53:50;0.60;;;0.60;;
50002;SDS011;35889;51.442;6.408;2022-08-19T02:56:16;0.60;;;0.60;;
50002;SDS011;35889;51.442;6.408;2022-08-19T02:58:42;0.60;;;0.60;;
50002;SDS011;35889;51.442;6.408;2022-08-19T03:01:08;0.60;;;0.60;;
50002;SDS011;35889;51.442;6.408;2022-08-19T03:03:35;0.60;;;0.60;;
50002;SDS011;35889;51.442;6.408;2022-08-19T03:06:11;0.60;;;0.60;;
50002;SDS011;35889;51.442;6.408;2022-08-19T03:08:39;0.60;;;0.60;;
50002;SDS011;35889;51.442;6.408;2022-08-19T03:11:05;0.50;;;0.50;;
50002;SDS011;35889;51.442;6.408;2022-08-19T03:13:31;0.60;;;0.60;;
50002;SDS011;35889;51.442;6.408;2022-08-19T03:15:56;0.60;;;0.60;;
50002;SDS011;35889;51.442;6.408;2022-08-19T03:18:22;0.60;;;0.60;;
50002;SDS011;35889;51.442;6.408;2022-08-19T03:20:49;0.60;;;0.60;;
50002;SDS011;35889;51.442;6.408;2022-08-19T03:23:17;0.50;;;0.50;;
50002;SDS011;35889;51.442;6.408;2022-08-19T03:25:44;0.50;;;0.50;;
50002;SDS011;35889;51.442;6.408;2022-08-19T03:28:11;0.50;;;0.50;;
50002;SDS011;35889;51.442;6.408;2022-08-19T03:30:38;0.60;;;0.60;;
50002;SDS011;35889;51.442;6.408;2022-08-19T03:33:06;0.50;;;0.50;;
50002;SDS011;35889;51.442;6.408;2022-08-19T03:35:35;0.60;;;0.60;;
50002;SDS011;35889;51.442;6.408;2022-08-19T03:38:04;0.50;;;0.50;;
50002;SDS011;35889;51.442;6.408;2022-08-19T03:40:30;0.60;;;0.60;;
50002;SDS011;35889;51.442;6.408;2022-08-19T03:42:56;0.60;;;0.60;;
50002;SDS011;35889;51.442;6.408;2022-08-19T03:45:22;0.60;;;0.60;;
50002;SDS011;35889;51.442;6.408;2022-08-19T03:47:48;0.60;;;0.60;;
50002;SDS011;35889;51.442;6.408;2022-08-19T03:50:13;0.50;;;0.50;;
50002;SDS011;35889;51.442;6.408;2022-08-19T03:52:38;0.60;;;0.60;;
50002;SDS011;35889;51.442;6.408;2022-08-19T03:55:04;0.60;;;0.60;;
50002;SDS011;35889;51.442;6.408;2022-08-19T03:57:30;0.50;;;0.50;;
50002;SDS011;35889;51.442;6.408;2022-08-19T03:59:57;0.60;;;0.60;;
50002;SDS011;35889;51.442;6.408;2022-08-19T04:02:23;0.60;;;0.60;;
50002;SDS011;35889;51.442;6.408;2022-08-19T04:04:48;0.50;;;0.50;;
50002;SDS011;35889;51.442;6.408;2022-08-19T04:07:14;0.60;;;0.60;;
50002;SDS011;35889;51.442;6.408;2022-08-19T04:09:41;0.60;;;0.60;;
50002;SDS011;35889;51.442;6.408;2022-08-19T04:12:07;0.60;;;0.60;;
50002;SDS011;35889;51.442;6.408;2022-08-19T04:14:33;0.60;;;0.60;;
50002;SDS011;35889;51.442;6.408;2022-08-19T04:16:59;0.60;;;0.60;;
50002;SDS011;35889;51.442;6.408;2022-08-19T04:19:25;0.60;;;0.60;;
50002;SDS011;35889;51.442;6.408;2022-08-19T04:21:52;0.60;;;0.60;;
50002;SDS011;35889;51.442;6.408;2022-08-19T04:24:18;0.50;;;0.50;;
50002;SDS011;35889;51.442;6.408;2022-08-19T04:26:45;0.60;;;0.60;;
50002;SDS011;35889;51.442;6.408;2022-08-19T04:29:12;0.60;;;0.60;;
50002;SDS011;35889;51.442;6.408;2022-08-19T04:31:42;0.70;;;0.70;;
50002;SDS011;35889;51.442;6.408;2022-08-19T04:34:10;0.60;;;0.60;;
50002;SDS011;35889;51.442;6.408;2022-08-19T04:36:37;0.50;;;0.50;;
50002;SDS011;35889;51.442;6.408;2022-08-19T04:39:08;0.52;;;0.52;;
50002;SDS011;35889;51.442;6.408;2022-08-19T04:41:36;0.57;;;0.57;;
50002;SDS011;35889;51.442;6.408;2022-08-19T04:44:19;0.60;;;0.60;;
50002;SDS011;35889;51.442;6.408;2022-08-19T04:46:46;0.60;;;0.60;;
50002;SDS011;35889;51.442;6.408;2022-08-19T04:49:13;0.60;;;0.60;;
50002;SDS011;35889;51.442;6.408;2022-08-19T04:51:40;0.60;;;0.60;;
50002;SDS011;35889;51.442;6.408;2022-08-19T04:54:07;0.60;;;0.60;;
50002;SDS011;35889;51.442;6.408;2022-08-19T04:56:32;0.70;;;0.70;;
50002;SDS011;35889;51.442;6.408;2022-08-19T04:58:58;0.60;;;0.60;;
50002;SDS011;35889;51.442;6.408;2022-08-19T05:01:28;0.70;;;0.70;;
50002;SDS011;35889;51.442;6.408;2022-08-19T05:03:55;0.60;;;0.60;;
50002;SDS011;35889;51.442;6.408;2022-08-19T05:06:21;0.60;;;0.60;;
50002;SDS011;35889;51.442;6.408;2022-08-19T05:08:47;0.60;;;0.60;;
50002;SDS011;35889;51.442;6.408;2022-08-19T05:11:14;0.60;;;0.60;;
50002;SDS011;35889;51.442;6.408;2022-08-19T05:13:43;0.60;;;0.60;;
50002;SDS011;35889;51.442;6.408;2022-08-19T05:16:09;0.60;;;0.60;;
50002;SDS011;35889;51.442;6.408;2022-08-19T05:18:36;0.68;;;0.68;;
50002;SDS011;35889;51.442;6.408;2022-08-19T05:21:20;0.60;;;0.60;;
50002;SDS011;35889;51.442;6.408;2022-08-19T05:24:05;0.60;;;0.60;;
50002;SDS011;35889;51.442;6.408;2022-08-19T05:26:37;0.60;;;0.60;;
50002;SDS011;35889;51.442;6.408;2022-08-19T05:29:03;0.60;;;0.60;;
50002;SDS011;35889;51.442;6.408;2022-08-19T05:31:29;0.60;;;0.60;;
50002;SDS011;35889;51.442;6.408;2022-08-19T05:33:55;0.60;;;0.60;;
50002;SDS011;35889;51.442;6.408;2022-08-19T05:36:27;0.60;;;0.60;;
50002;SDS011;35889;51.442;6.408;2022-08-19T05:38:54;0.60;;;0.60;;
50002;SDS011;35889;51.442;6.408;2022-08-19T05:41:21;0.60;;;0.60;;
50002;SDS011;35889;51.442;6.408;2022-08-19T05:43:54;0.60;;;0.60;;
50002;SDS011;35889;51.442;6.408;2022-08-19T05:46:21;0.60;;;0.60;;
50002;SDS011;35889;51.442;6.408;2022-08-19T05:48:47;0.60;;;0.60;;
50002;SDS011;35889;51.442;6.408;2022-08-19T05:51:13;0.60;;;0.60;;
50002;SDS011;35889;51.442;6.408;2022-08-19T05:53:39;0.63;;;0.63;;
50002;SDS011;35889;51.442;6.408;2022-08-19T05:56:08;0.60;;;0.60;;
50002;SDS011;35889;51.442;6.408;2022-08-19T05:58:39;0.60;;;0.60;;
50002;SDS011;35889;51.442;6.408;2022-08-19T06:01:09;0.60;;;0.60;;
50002;SDS011;35889;51.442;6.408;2022-08-19T06:03:37;0.60;;;0.60;;
50002;SDS011;35889;51.442;6.408;2022-08-19T06:06:04;0.60;;;0.60;;
50002;SDS011;35889;51.442;6.408;2022-08-19T06:08:30;0.60;;;0.60;;
50002;SDS011;35889;51.442;6.408;2022-08-19T06:10:56;0.60;;;0.60;;
50002;SDS011;35889;51.442;6.408;2022-08-19T06:13:21;0.60;;;0.60;;
50002;SDS011;35889;51.442;6.408;2022-08-19T06:15:47;0.60;;;0.60;;
50002;SDS011;35889;51.442;6.408;2022-08-19T06:18:13;0.60;;;0.60;;
50002;SDS011;35889;51.442;6.408;2022-08-19T06:20:39;0.60;;;0.60;;
50002;SDS011;35889;51.442;6.408;2022-08-19T06:23:05;0.60;;;0.60;;
50002;SDS011;35889;51.442;6.408;2022-08-19T06:25:31;0.60;;;0.60;;
50002;SDS011;35889;51.442;6.408;2022-08-19T06:27:57;0.60;;;0.60;;
50002;SDS011;35889;51.442;6.408;2022-08-19T06:30:22;0.60;;;0.60;;
50002;SDS011;35889;51.442;6.408;2022-08-19T06:32:48;0.60;;;0.60;;
50002;SDS011;35889;51.442;6.408;2022-08-19T06:35:13;0.60;;;0.60;;
50002;SDS011;35889;51.442;6.408;2022-08-19T06:37:39;0.60;;;0.60;;
50002;SDS011;35889;51.442;6.408;2022-08-19T06:40:05;0.52;;;0.52;;
50002;SDS011;35889;51.442;6.408;2022-08-19T06:42:33;0.60;;;0.60;;
50002;SDS011;35889;51.442;6.408;2022-08-19T06:45:00;0.60;;;0.60;;
50002;SDS011;35889;51.442;6.408;2022-08-19T06:47:28;0.60;;;0.60;;
50002;SDS011;35889;51.442;6.408;2022-08-19T06:49:54;0.60;;;0.60;;
50002;SDS011;35889;51.442;6.408;2022-08-19T06:52:27;0.60;;;0.60;;
50002;SDS011;35889;51.442;6.408;2022-08-19T06:54:57;0.60;;;0.60;;
50002;SDS011;35889;51.442;6.408;2022-08-19T06:57:23;0.60;;;0.60;;
50002;SDS011;35889;51.442;6.408;2022-08-19T06:59:49;0.60;;;0.60;;
50002;SDS011;35889;51.442;6.408;2022-08-19T07:02:14;0.70;;;0.70;;
50002;SDS011;35889;51.442;6.408;2022-08-19T07:04:40;0.60;;;0.60;;
50002;SDS011;35889;51.442;6.408;2022-08-19T07:07:09;0.70;;;0.70;;
50002;SDS011;35889;51.442;6.408;2022-08-19T07:09:38;0.60;;;0.60;;
50002;SDS011;35889;51.442;6.408;2022-08-19T07:12:05;0.60;;;0.60;;
50002;SDS011;35889;51.442;6.408;2022-08-19T07:14:32;0.60;;;0.60;;
50002;SDS011;35889;51.442;6.408;2022-08-19T07:17:03;0.60;;;0.60;;
50002;SDS011;35889;51.442;6.408;2022-08-19T07:19:30;0.60;;;0.60;;
50002;SDS011;35889;51.442;6.408;2022-08-19T07:21:56;0.60;;;0.60;;
50002;SDS011;35889;51.442;6.408;2022-08-19T07:24:23;0.60;;;0.60;;
50002;SDS011;35889;51.442;6.408;2022-08-19T07:26:50;0.60;;;0.60;;
50002;SDS011;35889;51.442;6.408;2022-08-19T07:29:17;0.60;;;0.60;;
50002;SDS011;35889;51.442;6.408;2022-08-19T07:31:43;0.70;;;0.70;;
50002;SDS011;35889;51.442;6.408;2022-08-19T07:34:10;0.60;;;0.60;;
50002;SDS011;35889;51.442;6.408;2022-08-19T07:36:39;0.70;;;0.70;;
50002;SDS011;35889;51.442;6.408;2022-08-19T07:39:15;0.70;;;0.70;;
50002;SDS011;35889;51.442;6.408;2022-08-19T07:42:00;0.60;;;0.60;;
50002;SDS011;35889;51.442;6.408;2022-08-19T07:44:27;0.60;;;0.60;;
50002;SDS011;35889;51.442;6.408;2022-08-19T07:46:53;0.60;;;0.60;;
50002;SDS011;35889;51.442;6.408;2022-08-19T07:49:21;0.70;;;0.70;;
50002;SDS011;35889;51.442;6.408;2022-08-19T07:51:48;0.60;;;0.60;;
50002;SDS011;35889;51.442;6.408;2022-08-19T07:54:26;0.50;;;0.50;;
50002;SDS011;35889;51.442;6.408;2022-08-19T07:56:53;0.60;;;0.60;;
50002;SDS011;35889;51.442;6.408;2022-08-19T07:59:19;0.60;;;0.60;;
50002;SDS011;35889;51.442;6.408;2022-08-19T08:01:45;0.68;;;0.68;;
50002;SDS011;35889;51.442;6.408;2022-08-19T08:04:12;0.60;;;0.60;;
50002;SDS011;35889;51.442;6.408;2022-08-19T08:06:56;0.70;;;0.70;;
50002;SDS011;35889;51.442;6.408;2022-08-19T08:09:42;0.70;;;0.70;;
50002;SDS011;35889;51.442;6.408;2022-08-19T08:12:10;0.70;;;0.70;;
50002;SDS011;35889;51.442;6.408;2022-08-19T08:14:43;0.50;;;0.50;;
50002;SDS011;35889;51.442;6.408;2022-08-19T08:17:12;0.60;;;0.60;;
50002;SDS011;35889;51.442;6.408;2022-08-19T08:19:40;0.60;;;0.60;;
50002;SDS011;35889;51.442;6.408;2022-08-19T08:22:09;0.60;;;0.60;;
50002;SDS011;35889;51.442;6.408;2022-08-19T08:24:55;0.60;;;0.60;;
50002;SDS011;35889;51.442;6.408;2022-08-19T08:27:23;0.70;;;0.70;;
50002;SDS011;35889;51.442;6.408;2022-08-19T08:29:49;0.70;;;0.70;;
50002;SDS011;35889;51.442;6.408;2022-08-19T08:32:14;0.70;;;0.70;;
50002;SDS011;35889;51.442;6.408;2022-08-19T08:34:40;0.70;;;0.70;;
50002;SDS011;35889;51.442;6.408;2022-08-19T08:37:06;0.70;;;0.70;;
50002;SDS011;35889;51.442;6.408;2022-08-19T08:39:31;0.60;;;0.60;;
50002;SDS011;35889;51.442;6.408;2022-08-19T08:44:52;0.70;;;0.70;;
50002;SDS011;35889;51.442;6.408;2022-08-19T08:47:31;0.60;;;0.60;;
50002;SDS011;35889;51.442;6.408;2022-08-19T08:50:04;0.52;;;0.52;;
50002;SDS011;35889;51.442;6.408;2022-08-19T08:52:36;0.60;;;0.60;;
50002;SDS011;35889;51.442;6.408;2022-08-19T08:55:09;0.60;;;0.60;;
50002;SDS011;35889;51.442;6.408;2022-08-19T09:00:20;0.60;;;0.60;;
50002;SDS011;35889;51.442;6.408;2022-08-19T09:02:49;0.70;;;0.70;;
50002;SDS011;35889;51.442;6.408;2022-08-19T09:05:14;0.60;;;0.60;;
50002;SDS011;35889;51.442;6.408;2022-08-19T09:10:32;0.60;;;0.60;;
50002;SDS011;35889;51.442;6.408;2022-08-19T09:15:42;0.60;;;0.60;;
50002;SDS011;35889;51.442;6.408;2022-08-19T09:18:10;0.60;;;0.60;;
50002;SDS011;35889;51.442;6.408;2022-08-19T09:20:36;0.60;;;0.60;;
50002;SDS011;35889;51.442;6.408;2022-08-19T09:23:01;0.70;;;0.70;;
50002;SDS011;35889;51.442;6.408;2022-08-19T09:25:27;0.70;;;0.70;;
50002;SDS011;35889;51.442;6.408;2022-08-19T09:27:53;0.60;;;0.60;;
50002;SDS011;35889;51.442;6.408;2022-08-19T09:30:26;0.70;;;0.70;;
50002;SDS011;35889;51.442;6.408;2022-08-19T09:32:53;0.70;;;0.70;;
50002;SDS011;35889;51.442;6.408;2022-08-19T09:35:22;0.70;;;0.70;;
50002;SDS011;35889;51.442;6.408;2022-08-19T09:37:50;0.70;;;0.70;;
50002;SDS011;35889;51.442;6.408;2022-08-19T09:40:16;0.70;;;0.70;;
50002;SDS011;35889;51.442;6.408;2022-08-19T09:42:43;0.70;;;0.70;;
50002;SDS011;35889;51.442;6.408;2022-08-19T09:45:11;0.70;;;0.70;;
50002;SDS011;35889;51.442;6.408;2022-08-19T09:47:37;0.70;;;0.70;;
50002;SDS011;35889;51.442;6.408;2022-08-19T09:50:04;0.70;;;0.70;;
50002;SDS011;35889;51.442;6.408;2022-08-19T09:52:33;0.70;;;0.70;;
50002;SDS011;35889;51.442;6.408;2022-08-19T09:55:02;0.70;;;0.70;;
50002;SDS011;35889;51.442;6.408;2022-08-19T09:57:29;0.70;;;0.70;;
50002;SDS011;35889;51.442;6.408;2022-08-19T09:59:54;0.68;;;0.68;;
50002;SDS011;35889;51.442;6.408;2022-08-19T10:02:20;0.70;;;0.70;;
50002;SDS011;35889;51.442;6.408;2022-08-19T10:04:47;0.70;;;0.70;;
50002;SDS011;35889;51.442;6.408;2022-08-19T10:07:31;0.70;;;0.70;;
50002;SDS011;35889;51.442;6.408;2022-08-19T10:09:56;0.70;;;0.70;;
50002;SDS011;35889;51.442;6.408;2022-08-19T10:12:22;0.70;;;0.70;;
50002;SDS011;35889;51.442;6.408;2022-08-19T10:14:47;0.80;;;0.80;;
50002;SDS011;35889;51.442;6.408;2022-08-19T10:17:13;0.80;;;0.80;;
50002;SDS011;35889;51.442;6.408;2022-08-19T10:19:39;0.70;;;0.70;;
50002;SDS011;35889;51.442;6.408;2022-08-19T10:22:05;0.70;;;0.70;;
50002;SDS011;35889;51.442;6.408;2022-08-19T10:24:32;0.73;;;0.73;;
50002;SDS011;35889;51.442;6.408;2022-08-19T10:26:59;0.80;;;0.80;;
50002;SDS011;35889;51.442;6.408;2022-08-19T10:29:26;0.70;;;0.70;;
50002;SDS011;35889;51.442;6.408;2022-08-19T10:31:53;0.70;;;0.70;;
50002;SDS011;35889;51.442;6.408;2022-08-19T10:34:18;0.70;;;0.70;;
50002;SDS011;35889;51.442;6.408;2022-08-19T10:36:44;0.70;;;0.70;;
50002;SDS011;35889;51.442;6.408;2022-08-19T10:39:10;0.80;;;0.80;;
50002;SDS011;35889;51.442;6.408;2022-08-19T10:41:38;0.77;;;0.77;;
50002;SDS011;35889;51.442;6.408;2022-08-19T10:44:06;0.73;;;0.73;;
50002;SDS011;35889;51.442;6.408;2022-08-19T10:46:33;0.70;;;0.70;;
50002;SDS011;35889;51.442;6.408;2022-08-19T10:49:06;0.80;;;0.80;;
50002;SDS011;35889;51.442;6.408;2022-08-19T10:51:33;0.80;;;0.80;;
50002;SDS011;35889;51.442;6.408;2022-08-19T10:54:17;0.80;;;0.80;;
50002;SDS011;35889;51.442;6.408;2022-08-19T10:56:43;0.80;;;0.80;;
50002;SDS011;35889;51.442;6.408;2022-08-19T11:01:48;0.80;;;0.80;;
50002;SDS011;35889;51.442;6.408;2022-08-19T11:04:14;0.70;;;0.70;;
50002;SDS011;35889;51.442;6.408;2022-08-19T11:06:42;0.80;;;0.80;;
50002;SDS011;35889;51.442;6.408;2022-08-19T11:09:10;0.70;;;0.70;;
50002;SDS011;35889;51.442;6.408;2022-08-19T11:11:37;0.70;;;0.70;;
50002;SDS011;35889;51.442;6.408;2022-08-19T11:14:09;0.70;;;0.70;;
50002;SDS011;35889;51.442;6.408;2022-08-19T11:16:36;0.70;;;0.70;;
50002;SDS011;35889;51.442;6.408;2022-08-19T11:19:04;0.70;;;0.70;;
50002;SDS011;35889;51.442;6.408;2022-08-19T11:21:33;0.80;;;0.80;;
50002;SDS011;35889;51.442;6.408;2022-08-19T11:24:01;0.70;;;0.70;;
50002;SDS011;35889;51.442;6.408;2022-08-19T11:26:29;0.70;;;0.70;;
50002;SDS011;35889;51.442;6.408;2022-08-19T11:28:56;0.70;;;0.70;;
50002;SDS011;35889;51.442;6.408;2022-08-19T11:31:24;0.70;;;0.70;;
50002;SDS011;35889;51.442;6.408;2022-08-19T11:33:51;0.77;;;0.77;;
50002;SDS011;35889;51.442;6.408;2022-08-19T11:36:19;0.70;;;0.70;;
50002;SDS011;35889;51.442;6.408;2022-08-19T11:38:45;0.70;;;0.70;;
50002;SDS011;35889;51.442;6.408;2022-08-19T11:41:14;0.70;;;0.70;;
50002;SDS011;35889;51.442;6.408;2022-08-19T11:43:41;0.70;;;0.70;;
50002;SDS011;35889;51.442;6.408;2022-08-19T11:46:07;0.70;;;0.70;;
50002;SDS011;35889;51.442;6.408;2022-08-19T11:48:35;0.80;;;0.80;;
50002;SDS011;35889;51.442;6.408;2022-08-19T11:51:02;0.80;;;0.80;;
50002;SDS011;35889;51.442;6.408;2022-08-19T11:53:31;0.70;;;0.70;;
50002;SDS011;35889;51.442;6.408;2022-08-19T11:55:57;0.70;;;0.70;;
50002;SDS011;35889;51.442;6.408;2022-08-19T11:58:23;0.70;;;0.70;;
50002;SDS011;35889;51.442;6.408;2022-08-19T12:00:49;0.80;;;0.80;;
50002;SDS011;35889;51.442;6.408;2022-08-19T12:03:15;0.75;;;0.75;;
50002;SDS011;35889;51.442;6.408;2022-08-19T12:05:41;0.80;;;0.80;;
50002;SDS011;35889;51.442;6.408;2022-08-19T12:08:07;0.80;;;0.80;;
50002;SDS011;35889;51.442;6.408;2022-08-19T12:10:33;0.70;;;0.70;;
50002;SDS011;35889;51.442;6.408;2022-08-19T12:12:59;0.80;;;0.80;;
50002;SDS011;35889;51.442;6.408;2022-08-19T12:15:26;0.70;;;0.70;;
50002;SDS011;35889;51.442;6.408;2022-08-19T12:17:54;0.70;;;0.70;;
50002;SDS011;35889;51.442;6.408;2022-08-19T12:20:21;0.70;;;0.70;;
50002;SDS011;35889;51.442;6.408;2022-08-19T12:22:47;0.77;;;0.77;;
50002;SDS011;35889;51.442;6.408;2022-08-19T12:25:13;0.73;;;0.73;;
50002;SDS011;35889;51.442;6.408;2022-08-19T12:27:39;0.70;;;0.70;;
50002;SDS011;35889;51.442;6.408;2022-08-19T12:30:05;0.70;;;0.70;;
50002;SDS011;35889;51.442;6.408;2022-08-19T12:32:32;0.80;;;0.80;;
50002;SDS011;35889;51.442;6.408;2022-08-19T12:34:58;0.70;;;0.70;;
50002;SDS011;35889;51.442;6.408;2022-08-19T12:37:23;0.70;;;0.70;;
50002;SDS011;35889;51.442;6.408;2022-08-19T12:39:49;0.80;;;0.80;;
50002;SDS011;35889;51.442;6.408;2022-08-19T12:42:14;0.70;;;0.70;;
50002;SDS011;35889;51.442;6.408;2022-08-19T12:44:41;0.70;;;0.70;;
50002;SDS011;35889;51.442;6.408;2022-08-19T12:47:08;0.70;;;0.70;;
50002;SDS011;35889;51.442;6.408;2022-08-19T12:49:35;0.70;;;0.70;;
50002;SDS011;35889;51.442;6.408;2022-08-19T12:52:05;0.70;;;0.70;;
50002;SDS011;35889;51.442;6.408;2022-08-19T12:54:32;0.70;;;0.70;;
50002;SDS011;35889;51.442;6.408;2022-08-19T12:56:59;0.70;;;0.70;;
50002;SDS011;35889;51.442;6.408;2022-08-19T12:59:25;0.80;;;0.80;;
50002;SDS011;35889;51.442;6.408;2022-08-19T13:01:51;0.70;;;0.70;;
50002;SDS011;35889;51.442;6.408;2022-08-19T13:04:17;0.70;;;0.70;;
50002;SDS011;35889;51.442;6.408;2022-08-19T13:06:42;0.70;;;0.70;;
50002;SDS011;35889;51.442;6.408;2022-08-19T13:09:08;0.70;;;0.70;;
50002;SDS011;35889;51.442;6.408;2022-08-19T13:11:34;0.70;;;0.70;;
50002;SDS011;35889;51.442;6.408;2022-08-19T13:14:00;0.70;;;0.70;;
50002;SDS011;35889;51.442;6.408;2022-08-19T13:16:27;0.70;;;0.70;;
50002;SDS011;35889;51.442;6.408;2022-08-19T13:18:53;0.60;;;0.60;;
50002;SDS011;35889;51.442;6.408;2022-08-19T13:21:19;0.70;;;0.70;;
50002;SDS011;35889;51.442;6.408;2022-08-19T13:23:46;0.70;;;0.70;;
50002;SDS011;35889;51.442;6.408;2022-08-19T13:26:12;0.60;;;0.60;;
50002;SDS011;35889;51.442;6.408;2022-08-19T13:28:38;0.70;;;0.70;;
50002;SDS011;35889;51.442;6.408;2022-08-19T13:31:24;0.70;;;0.70;;
50002;SDS011;35889;51.442;6.408;2022-08-19T13:34:09;0.70;;;0.70;;
50002;SDS011;35889;51.442;6.408;2022-08-19T13:36:35;0.70;;;0.70;;
50002;SDS011;35889;51.442;6.408;2022-08-19T13:39:02;0.70;;;0.70;;
50002;SDS011;35889;51.442;6.408;2022-08-19T13:41:29;0.70;;;0.70;;
50002;SDS011;35889;51.442;6.408;2022-08-19T13:43:54;0.70;;;0.70;;
50002;SDS011;35889;51.442;6.408;2022-08-19T13:46:20;0.70;;;0.70;;
50002;SDS011;35889;51.442;6.408;2022-08-19T13:48:46;0.70;;;0.70;;
50002;SDS011;35889;51.442;6.408;2022-08-19T13:51:13;0.70;;;0.70;;
50002;SDS011;35889;51.442;6.408;2022-08-19T13:53:41;0.70;;;0.70;;
50002;SDS011;35889;51.442;6.408;2022-08-19T13:56:09;0.70;;;0.70;;
50002;SDS011;35889;51.442;6.408;2022-08-19T13:58:36;0.70;;;0.70;;
50002;SDS011;35889;51.442;6.408;2022-08-19T14:01:02;0.70;;;0.70;;
50002;SDS011;35889;51.442;6.408;2022-08-19T14:03:28;0.82;;;0.82;;
50002;SDS011;35889;51.442;6.408;2022-08-19T14:05:53;0.93;;;0.93;;
50002;SDS011;35889;51.442;6.408;2022-08-19T14:08:19;1.00;;;1.00;;
50002;SDS011;35889;51.442;6.408;2022-08-19T14:10:44;1.00;;;1.00;;
50002;SDS011;35889;51.442;6.408;2022-08-19T14:13:12;1.00;;;1.00;;
50002;SDS011;35889;51.442;6.408;2022-08-19T14:15:40;1.10;;;1.10;;
50002;SDS011;35889;51.442;6.408;2022-08-19T14:18:06;1.10;;;1.10;;
50002;SDS011;35889;51.442;6.408;2022-08-19T14:20:34;1.10;;;1.10;;
50002;SDS011;35889;51.442;6.408;2022-08-19T14:23:00;1.10;;;1.10;;
50002;SDS011;35889;51.442;6.408;2022-08-19T14:25:26;1.13;;;1.13;;
50002;SDS011;35889;51.442;6.408;2022-08-19T14:27:53;1.20;;;1.20;;
50002;SDS011;35889;51.442;6.408;2022-08-19T14:30:23;1.20;;;1.20;;
50002;SDS011;35889;51.442;6.408;2022-08-19T14:32:53;1.15;;;1.15;;
50002;SDS011;35889;51.442;6.408;2022-08-19T14:35:20;1.20;;;1.20;;
50002;SDS011;35889;51.442;6.408;2022-08-19T14:37:47;1.13;;;1.13;;
50002;SDS011;35889;51.442;6.408;2022-08-19T14:40:17;1.20;;;1.20;;
50002;SDS011;35889;51.442;6.408;2022-08-19T14:42:46;1.20;;;1.20;;
50002;SDS011;35889;51.442;6.408;2022-08-19T14:45:13;1.20;;;1.20;;
50002;SDS011;35889;51.442;6.408;2022-08-19T14:47:38;1.20;;;1.20;;
50002;SDS011;35889;51.442;6.408;2022-08-19T14:50:08;1.20;;;1.20;;
50002;SDS011;35889;51.442;6.408;2022-08-19T14:52:34;1.20;;;1.20;;
50002;SDS011;35889;51.442;6.408;2022-08-19T14:55:00;1.20;;;1.20;;
50002;SDS011;35889;51.442;6.408;2022-08-19T14:57:25;1.25;;;1.25;;
50002;SDS011;35889;51.442;6.408;2022-08-19T14:59:51;1.25;;;1.25;;
50002;SDS011;35889;51.442;6.408;2022-08-19T15:02:16;1.20;;;1.20;;
50002;SDS011;35889;51.442;6.408;2022-08-19T15:04:42;1.20;;;1.20;;
50002;SDS011;35889;51.442;6.408;2022-08-19T15:07:08;1.20;;;1.20;;
50002;SDS011;35889;51.442;6.408;2022-08-19T15:09:34;1.20;;;1.20;;